Terminal Aerodrome Forecast
Issued by NWS

Home | Current Version | Previous Version | Text Only | Print | Product List | Glossary On
Versions: 1 2 3 4 5 6 7 8 9 10 11 12 13 14 15 16 17 18 19 20
596
FTAK31 PAJN 111758
TAFAWG
TAF
PAWG 111758Z 1118/1218 10007KT P6SM FEW035 BKN070
     FM120200 11010KT P6SM BKN070
     FM120600 10010G18KT P6SM OVC070
     FM120800 10010G20KT P6SM VCSH SCT060 OVC080 WS020/12030KT
      TEMPO 1208/1212 -RA BKN025
     FM121200 12010G18KT P6SM -RA BKN025 OVC040
      AMD LTD TO CLD VIS AND WIND 1112/1115=

USA.gov is the U.S. government's official web portal to all federal, state and local government web resources and services.